Time;durP1;ratioP1;P1;durP2;ratioP2;P2;SDS_P1;SDS_P2;PMS_P1;PMS_P2;Temp;Humidity;BMP_temperature;BMP_pressure;BME280_temperature;BME280_humidity;BME280_pressure;Samples;Min_cycle;Max_cycle;Signal;HPM_P1;HPM_P2
2024/04/02 00:01:53;;;;;;;2.85;1.27;;;;;;;;;;5000685;28;20037;-76
2024/04/02 00:04:22;;;;;;;1.63;1.52;;;;;;;;;;5000337;28;20450;-77
2024/04/02 00:06:47;;;;;;;2.00;1.55;;;;;;;;;;4949662;28;20403;-76
2024/04/02 00:09:13;;;;;;;1.52;1.42;;;;;;;;;;4991406;28;20040;-76
2024/04/02 00:11:38;;;;;;;1.77;1.13;;;;;;;;;;4997761;28;20057;-76
2024/04/02 00:14:04;;;;;;;1.58;1.48;;;;;;;;;;4994877;28;20064;-76
2024/04/02 00:16:29;;;;;;;1.60;1.23;;;;;;;;;;4983868;28;20213;-76
2024/04/02 00:18:55;;;;;;;2.03;1.70;;;;;;;;;;4975076;28;20495;-77
2024/04/02 00:21:20;;;;;;;1.25;1.13;;;;;;;;;;4999626;28;20499;-76
2024/04/02 00:23:46;;;;;;;3.17;1.60;;;;;;;;;;4992299;28;20038;-75
2024/04/02 00:26:12;;;;;;;1.55;1.45;;;;;;;;;;4997805;28;20746;-77
2024/04/02 00:28:38;;;;;;;1.50;1.08;;;;;;;;;;4964448;28;20070;-78
2024/04/02 00:31:06;;;;;;;1.23;1.13;;;;;;;;;;4999525;28;20506;-77
2024/04/02 00:33:31;;;;;;;1.92;1.30;;;;;;;;;;4993049;28;20129;-77
2024/04/02 00:36:04;;;;;;;1.65;1.35;;;;;;;;;;4986706;28;20109;-77
2024/04/02 00:38:30;;;;;;;1.52;1.40;;;;;;;;;;4978084;28;20038;-77
2024/04/02 00:40:56;;;;;;;2.05;1.10;;;;;;;;;;4986388;28;20047;-77
2024/04/02 00:43:22;;;;;;;1.02;0.98;;;;;;;;;;4995351;28;20118;-77
2024/04/02 00:45:48;;;;;;;1.20;1.10;;;;;;;;;;5003587;28;20128;-77
2024/04/02 00:48:14;;;;;;;1.65;1.30;;;;;;;;;;4997406;28;20045;-78
2024/04/02 00:50:40;;;;;;;1.35;1.10;;;;;;;;;;4990989;28;20041;-78
2024/04/02 00:53:06;;;;;;;1.50;1.15;;;;;;;;;;4985463;28;20120;-77
2024/04/02 00:55:32;;;;;;;0.80;0.77;;;;;;;;;;4979300;28;20625;-77
2024/04/02 00:57:57;;;;;;;2.25;1.10;;;;;;;;;;4995984;28;20041;-77
2024/04/02 01:00:23;;;;;;;1.75;1.08;;;;;;;;;;4988230;28;20534;-77
2024/04/02 01:02:49;;;;;;;2.25;1.15;;;;;;;;;;4987424;28;20180;-77
2024/04/02 01:05:15;;;;;;;0.93;0.80;;;;;;;;;;4997841;28;20067;-77
2024/04/02 01:07:41;;;;;;;2.03;0.82;;;;;;;;;;4992291;28;20176;-77
2024/04/02 01:10:07;;;;;;;0.80;0.70;;;;;;;;;;4982341;28;20049;-77
2024/04/02 01:12:33;;;;;;;0.90;0.90;;;;;;;;;;4958511;28;20120;-77
2024/04/02 01:14:58;;;;;;;1.50;1.10;;;;;;;;;;4973701;28;20045;-77
2024/04/02 01:17:24;;;;;;;1.35;1.20;;;;;;;;;;4977528;28;20042;-77
2024/04/02 01:19:49;;;;;;;1.50;1.00;;;;;;;;;;4979773;28;20042;-77
2024/04/02 01:22:14;;;;;;;2.55;1.00;;;;;;;;;;4983774;28;20577;-77
2024/04/02 01:24:47;;;;;;;1.13;1.02;;;;;;;;;;4982664;28;20562;-77
2024/04/02 01:27:12;;;;;;;1.05;1.00;;;;;;;;;;4995290;28;20107;-77
2024/04/02 01:29:38;;;;;;;1.73;0.77;;;;;;;;;;4989457;28;20076;-77
2024/04/02 01:32:04;;;;;;;1.20;1.10;;;;;;;;;;4988857;28;20121;-77
2024/04/02 01:34:30;;;;;;;0.95;0.88;;;;;;;;;;4994065;28;21051;-77
2024/04/02 01:36:56;;;;;;;3.33;1.10;;;;;;;;;;4991020;28;20119;-77
2024/04/02 01:39:21;;;;;;;1.08;1.00;;;;;;;;;;5003822;28;20069;-77
2024/04/02 01:41:46;;;;;;;1.45;0.90;;;;;;;;;;5012780;28;20040;-77
2024/04/02 01:44:12;;;;;;;2.83;0.90;;;;;;;;;;4987153;28;20029;-78
2024/04/02 01:46:37;;;;;;;1.42;1.10;;;;;;;;;;5007675;28;20037;-76
2024/04/02 01:49:02;;;;;;;1.38;0.80;;;;;;;;;;4988454;28;20068;-78
2024/04/02 01:51:29;;;;;;;1.10;0.90;;;;;;;;;;4970603;28;20113;-77
2024/04/02 01:53:54;;;;;;;1.27;1.17;;;;;;;;;;4986613;28;20034;-77
2024/04/02 01:56:19;;;;;;;1.40;1.02;;;;;;;;;;4987196;28;20037;-76
2024/04/02 01:58:45;;;;;;;2.78;1.17;;;;;;;;;;4992236;28;20381;-77
2024/04/02 02:01:10;;;;;;;0.98;0.88;;;;;;;;;;4985490;28;20096;-76
2024/04/02 02:03:36;;;;;;;0.95;0.80;;;;;;;;;;4987469;28;20038;-77
2024/04/02 02:06:02;;;;;;;2.10;1.00;;;;;;;;;;4981866;28;20070;-77
2024/04/02 02:08:27;;;;;;;0.70;0.70;;;;;;;;;;4972782;28;20117;-77
2024/04/02 02:10:56;;;;;;;1.33;1.23;;;;;;;;;;4969100;28;20038;-76
2024/04/02 02:13:21;;;;;;;1.73;1.52;;;;;;;;;;4991411;28;20569;-77
2024/04/02 02:15:57;;;;;;;1.25;1.05;;;;;;;;;;4989148;28;20053;-77
2024/04/02 02:18:22;;;;;;;1.45;0.80;;;;;;;;;;4976718;28;20053;-77
2024/04/02 02:20:47;;;;;;;4.38;1.63;;;;;;;;;;4992637;28;20674;-76
2024/04/02 02:23:13;;;;;;;2.95;1.20;;;;;;;;;;4988887;28;20034;-77
2024/04/02 02:25:40;;;;;;;1.50;1.00;;;;;;;;;;4980441;28;20065;-77
2024/04/02 02:28:06;;;;;;;1.80;1.25;;;;;;;;;;4992728;28;20045;-77
2024/04/02 02:30:31;;;;;;;2.00;1.20;;;;;;;;;;4989914;28;20048;-76
2024/04/02 02:32:56;;;;;;;1.40;1.13;;;;;;;;;;4997739;28;20518;-77
2024/04/02 02:35:22;;;;;;;1.27;1.15;;;;;;;;;;4986544;28;20423;-77
2024/04/02 02:37:47;;;;;;;0.85;0.65;;;;;;;;;;4980974;28;20076;-77
2024/04/02 02:40:12;;;;;;;1.52;0.77;;;;;;;;;;5006128;28;20040;-77
2024/04/02 02:42:38;;;;;;;1.45;1.33;;;;;;;;;;5006776;28;20045;-76
2024/04/02 02:45:04;;;;;;;1.77;1.20;;;;;;;;;;4966916;28;20034;-77
2024/04/02 02:47:29;;;;;;;2.25;1.45;;;;;;;;;;5000169;28;20038;-77
2024/04/02 02:49:55;;;;;;;1.02;1.00;;;;;;;;;;4983515;28;20034;-77
2024/04/02 02:52:20;;;;;;;1.65;1.02;;;;;;;;;;4966846;28;20418;-77
2024/04/02 02:54:45;;;;;;;1.02;0.85;;;;;;;;;;4987104;28;20092;-78
2024/04/02 02:57:11;;;;;;;1.00;0.98;;;;;;;;;;4989747;28;20153;-77
2024/04/02 02:59:36;;;;;;;0.80;0.80;;;;;;;;;;5003900;28;20085;-77
2024/04/02 03:02:02;;;;;;;2.15;1.20;;;;;;;;;;4992508;28;20118;-77
2024/04/02 03:04:27;;;;;;;1.33;1.10;;;;;;;;;;5002698;28;20609;-77
2024/04/02 03:06:53;;;;;;;1.42;1.27;;;;;;;;;;4984473;28;20099;-77
2024/04/02 03:09:18;;;;;;;1.55;1.00;;;;;;;;;;4985058;28;20076;-78
2024/04/02 03:11:43;;;;;;;1.55;0.90;;;;;;;;;;4967958;28;20891;-77
2024/04/02 03:14:09;;;;;;;1.98;1.42;;;;;;;;;;4985704;28;20030;-77
2024/04/02 03:16:34;;;;;;;1.65;1.02;;;;;;;;;;4993636;28;20113;-77
2024/04/02 03:18:59;;;;;;;2.15;1.35;;;;;;;;;;4986473;28;20045;-77
2024/04/02 03:21:25;;;;;;;2.17;1.30;;;;;;;;;;5002205;28;20035;-76
2024/04/02 03:23:50;;;;;;;1.30;1.10;;;;;;;;;;4993499;28;20029;-76
2024/04/02 03:26:15;;;;;;;2.45;1.10;;;;;;;;;;4966244;28;20035;-77
2024/04/02 03:28:41;;;;;;;1.38;1.00;;;;;;;;;;4971176;28;20046;-76
2024/04/02 03:31:07;;;;;;;1.00;0.95;;;;;;;;;;4997011;28;20037;-77
2024/04/02 03:33:33;;;;;;;0.68;0.68;;;;;;;;;;4965941;28;20197;-77
2024/04/02 03:36:07;;;;;;;1.75;0.93;;;;;;;;;;4959517;28;20062;-77
2024/04/02 03:38:33;;;;;;;1.05;0.90;;;;;;;;;;4988658;28;20128;-78
2024/04/02 03:41:12;;;;;;;1.20;1.15;;;;;;;;;;4989886;28;20040;-78
2024/04/02 03:43:39;;;;;;;1.40;1.08;;;;;;;;;;4981931;28;20041;-78
2024/04/02 03:46:05;;;;;;;2.05;1.05;;;;;;;;;;5001553;28;20132;-77
2024/04/02 03:48:31;;;;;;;0.70;0.70;;;;;;;;;;4983705;28;20041;-78
2024/04/02 03:50:56;;;;;;;1.60;1.00;;;;;;;;;;4980524;28;20030;-78
2024/04/02 03:53:22;;;;;;;1.10;1.00;;;;;;;;;;4978873;28;20033;-78
2024/04/02 03:55:47;;;;;;;0.88;0.75;;;;;;;;;;4956537;28;20050;-78
2024/04/02 03:58:12;;;;;;;1.42;1.08;;;;;;;;;;4967421;28;20098;-78
2024/04/02 04:00:44;;;;;;;2.63;0.98;;;;;;;;;;4966882;28;20034;-79
2024/04/02 04:03:10;;;;;;;2.72;1.17;;;;;;;;;;4994818;28;20148;-79
2024/04/02 04:05:36;;;;;;;0.40;0.40;;;;;;;;;;4968933;28;20030;-78
2024/04/02 04:08:02;;;;;;;1.10;0.68;;;;;;;;;;4981886;28;20056;-77
2024/04/02 04:10:27;;;;;;;1.20;1.10;;;;;;;;;;4983781;28;20080;-77
2024/04/02 04:12:52;;;;;;;1.40;0.90;;;;;;;;;;4962360;28;20584;-78
2024/04/02 04:15:18;;;;;;;3.08;0.90;;;;;;;;;;4997350;28;20033;-78
2024/04/02 04:17:43;;;;;;;1.00;0.90;;;;;;;;;;4994256;28;20454;-78
2024/04/02 04:20:09;;;;;;;0.70;0.70;;;;;;;;;;4984015;28;20106;-77
2024/04/02 04:22:34;;;;;;;0.63;0.60;;;;;;;;;;4977677;28;20105;-77
2024/04/02 04:25:02;;;;;;;1.13;1.02;;;;;;;;;;4991438;28;20581;-77
2024/04/02 04:27:32;;;;;;;1.38;0.70;;;;;;;;;;4963143;28;20038;-76
2024/04/02 04:29:59;;;;;;;0.60;0.60;;;;;;;;;;4984294;28;20054;-77
2024/04/02 04:32:24;;;;;;;4.75;1.15;;;;;;;;;;4989089;28;20042;-77
2024/04/02 04:34:50;;;;;;;2.78;1.25;;;;;;;;;;5002104;28;20052;-77
2024/04/02 04:37:15;;;;;;;1.90;1.10;;;;;;;;;;4990303;28;20069;-78
2024/04/02 04:39:40;;;;;;;1.00;0.77;;;;;;;;;;4981538;28;20635;-78
2024/04/02 04:42:06;;;;;;;0.98;0.80;;;;;;;;;;4983535;28;20069;-79
2024/04/02 04:44:31;;;;;;;1.15;0.75;;;;;;;;;;4971905;28;20026;-79
2024/04/02 04:46:56;;;;;;;0.90;0.80;;;;;;;;;;4989429;28;20061;-78
2024/04/02 04:49:22;;;;;;;1.95;0.70;;;;;;;;;;4967721;28;20118;-77
2024/04/02 04:51:47;;;;;;;1.20;1.08;;;;;;;;;;4989971;28;20085;-78
2024/04/02 04:54:12;;;;;;;0.73;0.73;;;;;;;;;;5003696;28;20541;-77
2024/04/02 04:56:38;;;;;;;1.55;0.93;;;;;;;;;;4999318;28;20077;-77
2024/04/02 04:59:03;;;;;;;2.50;1.08;;;;;;;;;;5012156;28;20742;-77
2024/04/02 05:01:28;;;;;;;0.93;0.90;;;;;;;;;;4999728;28;20592;-78
2024/04/02 05:03:54;;;;;;;0.90;0.90;;;;;;;;;;4987401;28;20547;-76
2024/04/02 05:06:19;;;;;;;1.13;0.90;;;;;;;;;;4986422;28;20038;-76
2024/04/02 05:08:44;;;;;;;0.50;0.50;;;;;;;;;;4975132;28;20026;-77
2024/04/02 05:11:10;;;;;;;2.17;1.00;;;;;;;;;;4988895;28;20073;-79
2024/04/02 05:13:37;;;;;;;2.40;0.80;;;;;;;;;;4990179;28;20046;-77
2024/04/02 05:16:04;;;;;;;3.03;0.90;;;;;;;;;;4986720;28;20057;-77
2024/04/02 05:18:29;;;;;;;1.15;0.70;;;;;;;;;;4967284;28;20034;-77
2024/04/02 05:20:54;;;;;;;1.42;0.90;;;;;;;;;;4972169;28;20041;-77
2024/04/02 05:23:21;;;;;;;2.97;1.20;;;;;;;;;;4971665;28;20042;-74
2024/04/02 05:25:47;;;;;;;2.63;0.93;;;;;;;;;;4974452;28;20037;-77
2024/04/02 05:28:12;;;;;;;0.98;0.80;;;;;;;;;;4989906;28;20115;-77
2024/04/02 05:30:37;;;;;;;1.33;1.10;;;;;;;;;;4994216;28;20061;-76
2024/04/02 05:33:03;;;;;;;0.93;0.90;;;;;;;;;;4991583;28;20037;-77
2024/04/02 05:35:30;;;;;;;2.25;0.90;;;;;;;;;;4987458;28;20031;-76
2024/04/02 05:37:55;;;;;;;0.82;0.47;;;;;;;;;;4990287;28;20442;-77
2024/04/02 05:40:21;;;;;;;4.65;0.95;;;;;;;;;;4990111;28;20077;-76
2024/04/02 05:42:48;;;;;;;3.20;0.93;;;;;;;;;;4975334;28;20042;-77
2024/04/02 05:45:15;;;;;;;1.30;0.90;;;;;;;;;;4997401;28;20038;-76
2024/04/02 05:47:40;;;;;;;0.95;0.77;;;;;;;;;;5003439;28;20046;-77
2024/04/02 05:50:06;;;;;;;2.15;0.85;;;;;;;;;;4990919;28;20030;-77
2024/04/02 05:52:32;;;;;;;2.47;1.33;;;;;;;;;;4979581;28;20046;-76
2024/04/02 05:54:57;;;;;;;0.98;0.73;;;;;;;;;;5001181;28;20052;-76
2024/04/02 05:57:23;;;;;;;1.15;0.82;;;;;;;;;;4989868;28;20044;-74
2024/04/02 05:59:50;;;;;;;3.83;0.80;;;;;;;;;;4986083;28;20073;-77
2024/04/02 06:02:16;;;;;;;2.85;1.20;;;;;;;;;;4992128;28;20045;-76
2024/04/02 06:04:42;;;;;;;1.20;0.95;;;;;;;;;;4977840;28;20038;-75
2024/04/02 06:07:07;;;;;;;1.60;1.10;;;;;;;;;;4990081;28;20057;-77
2024/04/02 06:09:32;;;;;;;2.45;1.15;;;;;;;;;;4976118;28;20045;-76
2024/04/02 06:11:58;;;;;;;2.33;1.63;;;;;;;;;;4984779;28;20039;-76
2024/04/02 06:14:23;;;;;;;0.98;0.90;;;;;;;;;;4993403;28;20479;-76
2024/04/02 06:16:48;;;;;;;0.80;0.80;;;;;;;;;;4991508;28;20061;-77
2024/04/02 06:19:14;;;;;;;0.95;0.80;;;;;;;;;;4969488;28;20066;-76
2024/04/02 06:21:39;;;;;;;1.38;0.90;;;;;;;;;;4988613;28;20046;-77
2024/04/02 06:24:05;;;;;;;0.85;0.73;;;;;;;;;;4987680;28;20412;-75
2024/04/02 06:26:30;;;;;;;0.55;0.52;;;;;;;;;;4985532;28;20075;-77
2024/04/02 06:28:55;;;;;;;2.70;1.00;;;;;;;;;;4994818;28;20052;-77
2024/04/02 06:31:21;;;;;;;1.25;1.15;;;;;;;;;;4998109;28;20044;-75
2024/04/02 06:33:46;;;;;;;2.85;0.80;;;;;;;;;;4993294;28;20041;-77
2024/04/02 06:36:12;;;;;;;1.77;0.85;;;;;;;;;;4987481;28;20471;-76
2024/04/02 06:38:40;;;;;;;1.50;0.65;;;;;;;;;;4992172;28;20045;-76
2024/04/02 06:41:05;;;;;;;3.28;1.25;;;;;;;;;;5007240;28;20699;-76
2024/04/02 06:43:31;;;;;;;5.00;1.20;;;;;;;;;;4998334;28;20051;-77
2024/04/02 06:45:59;;;;;;;0.50;0.50;;;;;;;;;;5004025;28;20045;-77
2024/04/02 06:48:25;;;;;;;2.60;1.27;;;;;;;;;;4988865;28;20616;-76
2024/04/02 06:51:04;;;;;;;0.75;0.50;;;;;;;;;;4991816;28;20037;-76
2024/04/02 06:53:31;;;;;;;1.40;0.77;;;;;;;;;;4994699;28;20476;-75
2024/04/02 06:55:56;;;;;;;1.38;0.52;;;;;;;;;;5007383;28;20033;-76
2024/04/02 06:58:22;;;;;;;1.17;0.88;;;;;;;;;;4983287;28;20030;-76
2024/04/02 07:00:48;;;;;;;1.85;0.68;;;;;;;;;;4991786;28;20208;-76
2024/04/02 07:03:24;;;;;;;1.90;1.00;;;;;;;;;;4993232;28;20295;-77
2024/04/02 07:05:51;;;;;;;1.45;1.10;;;;;;;;;;4985754;28;20081;-75
2024/04/02 07:08:17;;;;;;;2.38;1.02;;;;;;;;;;4985109;28;20494;-77
2024/04/02 07:10:45;;;;;;;1.10;1.00;;;;;;;;;;4986651;28;20049;-76
2024/04/02 07:13:12;;;;;;;1.17;1.02;;;;;;;;;;4977945;28;20041;-76
2024/04/02 07:15:40;;;;;;;0.80;0.75;;;;;;;;;;4987655;28;20048;-76
2024/04/02 07:18:06;;;;;;;2.45;0.98;;;;;;;;;;4994351;28;20574;-78
2024/04/02 07:20:32;;;;;;;1.83;1.05;;;;;;;;;;4985865;28;20122;-76
2024/04/02 07:22:57;;;;;;;0.82;0.40;;;;;;;;;;4986203;28;20061;-77
2024/04/02 07:25:22;;;;;;;2.25;0.82;;;;;;;;;;4990538;28;20042;-77
2024/04/02 07:27:48;;;;;;;3.22;0.77;;;;;;;;;;4986210;28;20042;-76
2024/04/02 07:30:13;;;;;;;0.80;0.68;;;;;;;;;;4977332;28;20049;-77
2024/04/02 07:32:39;;;;;;;1.10;0.65;;;;;;;;;;4991401;28;20048;-77
2024/04/02 07:35:05;;;;;;;1.38;0.40;;;;;;;;;;4966138;28;20120;-76
2024/04/02 07:37:30;;;;;;;2.08;1.02;;;;;;;;;;4987216;28;20057;-77
2024/04/02 07:39:56;;;;;;;2.92;1.00;;;;;;;;;;4981238;28;20129;-77
2024/04/02 07:42:21;;;;;;;1.35;0.70;;;;;;;;;;4987661;28;20396;-77
2024/04/02 07:44:46;;;;;;;3.72;1.00;;;;;;;;;;4982650;28;20053;-77
2024/04/02 07:47:12;;;;;;;1.65;0.85;;;;;;;;;;4969225;28;20031;-76
2024/04/02 07:49:37;;;;;;;2.25;0.90;;;;;;;;;;4987384;28;20042;-78
2024/04/02 07:52:03;;;;;;;0.65;0.65;;;;;;;;;;4968135;28;20045;-77
2024/04/02 07:54:28;;;;;;;0.60;0.57;;;;;;;;;;4989313;28;20482;-75
2024/04/02 07:56:54;;;;;;;1.58;0.70;;;;;;;;;;4984840;28;20121;-76
2024/04/02 07:59:23;;;;;;;1.45;0.82;;;;;;;;;;4987425;28;20042;-77
2024/04/02 08:01:48;;;;;;;2.00;0.82;;;;;;;;;;4982642;28;20121;-76
2024/04/02 08:04:13;;;;;;;1.60;0.80;;;;;;;;;;4979296;28;20137;-76
2024/04/02 08:06:39;;;;;;;1.65;0.63;;;;;;;;;;4982788;28;20520;-77
2024/04/02 08:09:05;;;;;;;0.50;0.50;;;;;;;;;;4996549;28;20756;-76
2024/04/02 08:11:30;;;;;;;0.75;0.50;;;;;;;;;;4971085;28;20145;-77
2024/04/02 08:13:55;;;;;;;0.60;0.40;;;;;;;;;;4972370;28;20038;-76
2024/04/02 08:16:22;;;;;;;0.95;0.65;;;;;;;;;;4999538;28;20124;-76
2024/04/02 08:18:48;;;;;;;2.15;0.60;;;;;;;;;;4981323;28;20085;-77
2024/04/02 08:21:13;;;;;;;0.55;0.30;;;;;;;;;;4961107;28;20065;-76
2024/04/02 08:23:39;;;;;;;0.98;0.50;;;;;;;;;;4972540;28;20042;-76
2024/04/02 08:26:04;;;;;;;1.50;0.55;;;;;;;;;;4984016;28;20050;-76
2024/04/02 08:28:29;;;;;;;0.25;0.25;;;;;;;;;;4971367;28;20042;-77
2024/04/02 08:30:55;;;;;;;0.70;0.70;;;;;;;;;;4973351;28;20880;-75
2024/04/02 08:33:22;;;;;;;1.27;0.50;;;;;;;;;;4994070;28;20045;-76
2024/04/02 08:35:49;;;;;;;1.48;0.60;;;;;;;;;;4985301;28;20061;-76
2024/04/02 08:38:14;;;;;;;1.08;0.77;;;;;;;;;;4983633;28;20051;-75
2024/04/02 08:40:40;;;;;;;1.98;0.60;;;;;;;;;;4991272;28;20554;-77
2024/04/02 08:43:09;;;;;;;0.38;0.30;;;;;;;;;;4992146;28;20069;-76
2024/04/02 08:45:37;;;;;;;1.00;0.50;;;;;;;;;;4988158;28;20049;-77
2024/04/02 08:48:04;;;;;;;1.63;0.40;;;;;;;;;;4992886;28;20339;-77
2024/04/02 08:50:30;;;;;;;1.25;0.65;;;;;;;;;;4985718;28;20041;-77
2024/04/02 08:52:55;;;;;;;1.75;0.70;;;;;;;;;;4981079;28;20725;-76
2024/04/02 08:55:21;;;;;;;4.68;0.55;;;;;;;;;;4977283;28;20042;-77
2024/04/02 08:57:50;;;;;;;1.23;0.40;;;;;;;;;;4991994;28;20122;-77
2024/04/02 09:00:16;;;;;;;0.93;0.35;;;;;;;;;;5003588;28;20685;-77
2024/04/02 09:02:45;;;;;;;0.45;0.40;;;;;;;;;;4965728;28;20054;-76
2024/04/02 09:05:10;;;;;;;2.10;0.55;;;;;;;;;;4993338;28;20073;-76
2024/04/02 09:07:36;;;;;;;0.50;0.30;;;;;;;;;;4991587;28;20030;-76
2024/04/02 09:10:01;;;;;;;3.35;0.60;;;;;;;;;;4983344;28;20044;-76
2024/04/02 09:12:27;;;;;;;1.25;0.45;;;;;;;;;;4996270;28;20061;-76
2024/04/02 09:14:52;;;;;;;0.65;0.60;;;;;;;;;;4974607;28;20093;-77
2024/04/02 09:17:17;;;;;;;0.38;0.30;;;;;;;;;;4988629;28;20038;-76
2024/04/02 09:19:44;;;;;;;0.43;0.30;;;;;;;;;;4996713;28;20034;-76
2024/04/02 09:22:10;;;;;;;1.00;0.30;;;;;;;;;;4987031;28;20464;-78
2024/04/02 09:24:38;;;;;;;0.45;0.30;;;;;;;;;;4978700;28;20120;-77
2024/04/02 09:27:04;;;;;;;0.75;0.30;;;;;;;;;;4978677;28;20570;-77
2024/04/02 09:29:29;;;;;;;1.65;0.30;;;;;;;;;;4984985;28;20124;-77
2024/04/02 09:31:58;;;;;;;0.65;0.40;;;;;;;;;;5002236;28;20498;-76
2024/04/02 09:34:25;;;;;;;0.88;0.30;;;;;;;;;;4994639;28;20077;-76
2024/04/02 09:37:12;;;;;;;0.52;0.32;;;;;;;;;;4990341;28;20034;-75
2024/04/02 09:39:39;;;;;;;0.13;0.13;;;;;;;;;;4974770;28;20056;-75
2024/04/02 09:42:06;;;;;;;0.73;0.30;;;;;;;;;;4981572;28;20034;-76
2024/04/02 09:44:32;;;;;;;2.28;0.40;;;;;;;;;;4998227;28;20151;-75
2024/04/02 09:47:00;;;;;;;0.20;0.20;;;;;;;;;;4997487;28;20383;-76
2024/04/02 09:49:26;;;;;;;0.30;0.30;;;;;;;;;;4990983;28;20056;-76
2024/04/02 09:51:54;;;;;;;0.30;0.30;;;;;;;;;;4986011;28;20034;-77
2024/04/02 09:54:21;;;;;;;0.38;0.30;;;;;;;;;;4992033;28;20048;-76
2024/04/02 09:56:48;;;;;;;0.40;0.30;;;;;;;;;;4982519;28;20590;-76
2024/04/02 09:59:13;;;;;;;0.95;0.38;;;;;;;;;;4989758;28;20048;-76
2024/04/02 10:01:42;;;;;;;0.40;0.40;;;;;;;;;;4995117;28;20037;-77
2024/04/02 10:04:10;;;;;;;0.45;0.30;;;;;;;;;;4988251;28;20061;-76
2024/04/02 10:06:36;;;;;;;1.63;0.60;;;;;;;;;;4984726;28;20037;-77
2024/04/02 10:09:12;;;;;;;0.50;0.30;;;;;;;;;;4987548;28;20064;-76
2024/04/02 10:11:38;;;;;;;0.82;0.30;;;;;;;;;;4988149;28;20061;-76
2024/04/02 10:14:14;;;;;;;0.30;0.30;;;;;;;;;;4992314;28;20049;-75
2024/04/02 10:16:42;;;;;;;0.35;0.35;;;;;;;;;;4987880;28;20042;-76
2024/04/02 10:19:20;;;;;;;0.60;0.30;;;;;;;;;;4990158;28;20066;-76
2024/04/02 10:21:47;;;;;;;0.77;0.30;;;;;;;;;;4988277;28;20136;-75
2024/04/02 10:24:15;;;;;;;1.13;0.40;;;;;;;;;;4992407;28;20092;-76
2024/04/02 10:26:41;;;;;;;0.65;0.40;;;;;;;;;;4968356;28;20038;-76
2024/04/02 10:29:07;;;;;;;1.73;0.40;;;;;;;;;;4995857;28;20049;-76
2024/04/02 10:31:38;;;;;;;1.08;0.20;;;;;;;;;;4992773;28;20042;-78
2024/04/02 10:34:08;;;;;;;0.30;0.30;;;;;;;;;;4993280;28;20041;-77
2024/04/02 10:36:34;;;;;;;0.77;0.30;;;;;;;;;;4995111;28;20094;-77
2024/04/02 10:38:59;;;;;;;1.85;0.40;;;;;;;;;;5001179;28;20033;-77
2024/04/02 10:41:29;;;;;;;0.88;0.30;;;;;;;;;;4987064;28;20044;-77
2024/04/02 10:43:54;;;;;;;2.33;0.40;;;;;;;;;;4994796;28;20152;-77
2024/04/02 10:46:24;;;;;;;1.05;0.70;;;;;;;;;;4995212;28;20482;-77
2024/04/02 10:48:50;;;;;;;0.33;0.33;;;;;;;;;;4982314;28;20039;-76
2024/04/02 10:51:15;;;;;;;1.42;0.45;;;;;;;;;;4988772;28;20044;-76
2024/04/02 10:53:40;;;;;;;0.15;0.15;;;;;;;;;;4983900;28;20072;-77
2024/04/02 10:56:07;;;;;;;0.30;0.30;;;;;;;;;;4987591;28;20030;-76
2024/04/02 10:58:34;;;;;;;2.10;0.40;;;;;;;;;;4961452;28;20043;-77
2024/04/02 11:01:00;;;;;;;0.57;0.40;;;;;;;;;;4993700;28;20145;-77
2024/04/02 11:03:26;;;;;;;0.80;0.30;;;;;;;;;;4991286;28;20116;-75
2024/04/02 11:05:52;;;;;;;2.65;0.32;;;;;;;;;;4990941;28;20095;-76
2024/04/02 11:08:17;;;;;;;1.10;0.25;;;;;;;;;;5003634;28;20037;-76
2024/04/02 11:10:49;;;;;;;0.47;0.32;;;;;;;;;;4995317;28;20118;-77
2024/04/02 11:13:27;;;;;;;2.70;0.52;;;;;;;;;;4987365;28;20065;-77
2024/04/02 11:15:53;;;;;;;1.45;0.30;;;;;;;;;;5004076;28;20425;-76
2024/04/02 11:18:22;;;;;;;2.33;0.50;;;;;;;;;;4998324;28;20034;-77
2024/04/02 11:20:47;;;;;;;1.38;0.30;;;;;;;;;;5005614;28;20164;-77
2024/04/02 11:26:18;;;;;;;0.60;0.40;;;;;;;;;;4913823;28;20709;-77
2024/04/02 11:28:43;;;;;;;1.80;0.40;;;;;;;;;;4983833;28;20073;-76
2024/04/02 11:31:12;;;;;;;2.30;0.40;;;;;;;;;;4985650;28;20509;-76
2024/04/02 11:33:38;;;;;;;0.85;0.50;;;;;;;;;;5004895;28;20515;-78
2024/04/02 11:36:05;;;;;;;2.90;0.50;;;;;;;;;;4985480;28;20072;-77
2024/04/02 11:38:31;;;;;;;3.22;0.63;;;;;;;;;;4993741;28;20038;-76
2024/04/02 11:40:56;;;;;;;1.40;0.55;;;;;;;;;;4986413;28;20049;-77
2024/04/02 11:43:23;;;;;;;0.57;0.28;;;;;;;;;;4974411;28;20038;-77
2024/04/02 11:45:48;;;;;;;2.10;0.50;;;;;;;;;;4988562;28;20121;-78
2024/04/02 11:48:14;;;;;;;1.25;0.30;;;;;;;;;;4984922;28;20125;-74
2024/04/02 11:50:39;;;;;;;2.28;0.40;;;;;;;;;;4990720;28;20729;-77
2024/04/02 11:53:05;;;;;;;1.73;0.50;;;;;;;;;;4990480;28;20077;-77
2024/04/02 11:55:30;;;;;;;1.00;0.40;;;;;;;;;;4991316;28;20605;-78
2024/04/02 12:00:39;;;;;;;1.05;0.38;;;;;;;;;;4995096;28;20035;-76
2024/04/02 12:03:05;;;;;;;2.33;0.60;;;;;;;;;;5005218;28;20050;-77
2024/04/02 12:05:30;;;;;;;2.00;0.40;;;;;;;;;;4975966;28;20065;-76
2024/04/02 12:07:55;;;;;;;1.50;0.38;;;;;;;;;;4980971;28;20046;-76
2024/04/02 12:10:21;;;;;;;1.45;0.40;;;;;;;;;;4993961;28;20038;-77
2024/04/02 12:12:46;;;;;;;0.55;0.30;;;;;;;;;;4982705;28;20034;-77
2024/04/02 12:15:12;;;;;;;2.40;0.55;;;;;;;;;;4984199;28;20034;-77
2024/04/02 12:17:37;;;;;;;0.90;0.43;;;;;;;;;;4990701;28;20049;-77
2024/04/02 12:20:03;;;;;;;0.77;0.30;;;;;;;;;;4991661;28;20041;-77
2024/04/02 12:22:29;;;;;;;1.60;0.65;;;;;;;;;;4981255;28;20041;-76
2024/04/02 12:24:54;;;;;;;1.00;0.40;;;;;;;;;;4969524;28;20113;-77
2024/04/02 12:27:21;;;;;;;1.02;0.40;;;;;;;;;;4983357;28;20062;-76
2024/04/02 12:29:52;;;;;;;1.90;0.55;;;;;;;;;;4961915;28;20052;-77
2024/04/02 12:32:17;;;;;;;1.02;0.40;;;;;;;;;;4983574;28;20083;-77
2024/04/02 12:34:46;;;;;;;2.70;0.40;;;;;;;;;;4990021;28;20121;-75
2024/04/02 12:37:11;;;;;;;1.35;0.57;;;;;;;;;;4973813;28;20045;-77
2024/04/02 12:39:37;;;;;;;1.77;0.40;;;;;;;;;;4991702;28;20069;-77
2024/04/02 12:42:03;;;;;;;4.13;0.50;;;;;;;;;;4991910;28;20040;-76
2024/04/02 12:44:30;;;;;;;1.30;0.32;;;;;;;;;;4968191;28;20080;-76
2024/04/02 12:46:58;;;;;;;1.23;0.60;;;;;;;;;;4993806;28;20042;-76
2024/04/02 12:49:24;;;;;;;0.52;0.35;;;;;;;;;;5002522;28;20033;-77
2024/04/02 12:51:51;;;;;;;2.75;0.65;;;;;;;;;;4998381;28;20041;-76
2024/04/02 12:54:17;;;;;;;3.00;0.40;;;;;;;;;;4985339;28;20121;-76
2024/04/02 12:56:43;;;;;;;1.63;0.43;;;;;;;;;;4990509;28;20140;-77
2024/04/02 12:59:08;;;;;;;1.00;0.38;;;;;;;;;;4979301;28;20539;-77
2024/04/02 13:01:33;;;;;;;1.20;0.60;;;;;;;;;;4990659;28;20038;-77
2024/04/02 13:03:59;;;;;;;3.08;0.43;;;;;;;;;;4998918;28;20445;-76
2024/04/02 13:06:25;;;;;;;2.83;0.70;;;;;;;;;;4992935;28;20060;-77
2024/04/02 13:08:52;;;;;;;1.95;0.30;;;;;;;;;;4987913;28;20035;-76
2024/04/02 13:11:17;;;;;;;1.20;0.75;;;;;;;;;;4998241;28;20120;-76
2024/04/02 13:13:43;;;;;;;0.40;0.20;;;;;;;;;;4992511;28;20038;-77
2024/04/02 13:16:30;;;;;;;1.08;0.35;;;;;;;;;;4991057;28;20046;-77
2024/04/02 13:18:55;;;;;;;0.60;0.40;;;;;;;;;;4957833;28;20046;-77
2024/04/02 13:21:21;;;;;;;2.63;0.50;;;;;;;;;;4998248;28;20033;-78
2024/04/02 13:23:46;;;;;;;1.50;0.40;;;;;;;;;;4986447;28;20182;-76
2024/04/02 13:26:12;;;;;;;1.25;0.40;;;;;;;;;;4971756;28;20034;-77
2024/04/02 13:28:38;;;;;;;1.30;0.30;;;;;;;;;;4992132;28;20038;-77
2024/04/02 13:31:04;;;;;;;0.90;0.50;;;;;;;;;;4996655;28;20037;-77
2024/04/02 13:33:29;;;;;;;2.63;0.50;;;;;;;;;;4989219;28;20097;-76
2024/04/02 13:35:55;;;;;;;0.50;0.43;;;;;;;;;;4988006;28;20038;-76
2024/04/02 13:38:20;;;;;;;1.65;0.40;;;;;;;;;;4988311;28;20068;-77
2024/04/02 13:40:48;;;;;;;1.00;0.30;;;;;;;;;;4996936;28;20038;-77
2024/04/02 13:43:13;;;;;;;0.43;0.30;;;;;;;;;;4982041;28;20108;-77
2024/04/02 13:45:39;;;;;;;1.55;0.30;;;;;;;;;;4988238;28;20828;-77
2024/04/02 13:48:05;;;;;;;2.60;0.50;;;;;;;;;;4983866;28;20140;-77
2024/04/02 13:50:30;;;;;;;0.25;0.20;;;;;;;;;;4960814;28;20057;-76
2024/04/02 13:52:55;;;;;;;0.47;0.30;;;;;;;;;;4987301;28;20109;-76
2024/04/02 13:55:22;;;;;;;0.40;0.20;;;;;;;;;;4981235;28;20076;-77
2024/04/02 13:57:47;;;;;;;1.23;0.20;;;;;;;;;;4976399;28;20042;-77
2024/04/02 14:00:14;;;;;;;1.17;0.35;;;;;;;;;;4986155;28;20034;-76
2024/04/02 14:02:40;;;;;;;1.27;0.30;;;;;;;;;;4985162;28;20078;-76
2024/04/02 14:05:06;;;;;;;0.85;0.20;;;;;;;;;;5003908;28;20072;-76
2024/04/02 14:07:32;;;;;;;1.13;0.30;;;;;;;;;;4984074;28;20045;-77
2024/04/02 14:09:58;;;;;;;2.65;0.52;;;;;;;;;;4975345;28;20040;-76
2024/04/02 14:12:23;;;;;;;1.30;0.38;;;;;;;;;;4987818;28;20034;-77
2024/04/02 14:14:48;;;;;;;0.30;0.30;;;;;;;;;;4991887;28;20045;-76
2024/04/02 14:17:14;;;;;;;0.80;0.47;;;;;;;;;;4996116;28;20037;-76
2024/04/02 14:19:39;;;;;;;1.45;0.40;;;;;;;;;;4997163;28;20037;-76
2024/04/02 14:22:04;;;;;;;0.47;0.30;;;;;;;;;;4995098;28;20599;-77
2024/04/02 14:24:30;;;;;;;0.60;0.30;;;;;;;;;;4967672;28;20498;-77
2024/04/02 14:26:55;;;;;;;1.63;0.40;;;;;;;;;;4991070;28;20053;-76
2024/04/02 14:29:21;;;;;;;1.65;0.30;;;;;;;;;;4984242;28;20114;-77
2024/04/02 14:31:47;;;;;;;1.45;0.20;;;;;;;;;;4999354;28;20092;-76
2024/04/02 14:34:12;;;;;;;1.35;0.20;;;;;;;;;;5008289;28;20108;-76
2024/04/02 14:36:38;;;;;;;0.30;0.20;;;;;;;;;;5004537;28;20584;-76
2024/04/02 14:39:04;;;;;;;0.68;0.20;;;;;;;;;;4991103;28;20120;-76
2024/04/02 14:41:29;;;;;;;1.40;0.43;;;;;;;;;;4997407;28;20048;-77
2024/04/02 14:43:54;;;;;;;1.05;0.13;;;;;;;;;;5005045;28;20048;-76